createdAt,value
2022-10-04T00:14:52.493Z,15.75
2022-10-04T00:17:27.248Z,16.60
2022-10-04T00:24:15.409Z,17.70
2022-10-04T00:39:20.578Z,18.38
2022-10-04T00:41:50.167Z,15.00
2022-10-04T00:45:59.387Z,14.52
2022-10-04T00:56:50.229Z,20.27
2022-10-04T00:59:31.873Z,20.25
2022-10-04T01:05:55.610Z,20.95
2022-10-04T01:08:55.850Z,25.77
2022-10-04T01:11:43.843Z,24.10
2022-10-04T01:14:56.778Z,23.63
2022-10-04T01:17:34.436Z,24.35
2022-10-04T01:20:04.677Z,23.40
2022-10-04T01:23:36.193Z,24.40
2022-10-04T01:29:37.331Z,25.58
2022-10-04T01:35:48.796Z,22.10
2022-10-04T01:50:52.005Z,21.42
2022-10-04T02:01:45.357Z,22.42
2022-10-04T02:04:22.031Z,23.52
2022-10-04T02:06:56.582Z,24.55
2022-10-04T02:09:56.597Z,23.45
2022-10-04T02:12:26.293Z,22.77
2022-10-04T02:14:55.753Z,24.10
2022-10-04T02:17:29.121Z,25.67
2022-10-04T02:19:58.061Z,26.00
2022-10-04T02:22:26.344Z,25.65
2022-10-04T02:24:56.362Z,24.80
2022-10-04T02:27:29.293Z,25.17
2022-10-04T02:30:23.018Z,26.23
2022-10-04T02:33:00.468Z,25.15
2022-10-04T02:35:34.420Z,26.85
2022-10-04T02:38:07.510Z,28.35
2022-10-04T02:40:47.755Z,26.85
2022-10-04T02:43:25.690Z,28.08
2022-10-04T02:46:13.666Z,27.92
2022-10-04T02:48:46.175Z,27.60
2022-10-04T02:51:25.821Z,24.67
2022-10-04T02:54:45.161Z,25.73
2022-10-04T02:57:21.505Z,24.13
2022-10-04T02:59:49.592Z,25.77
2022-10-04T03:02:31.173Z,24.02
2022-10-04T03:05:11.997Z,26.23
2022-10-04T03:07:40.775Z,24.13
2022-10-04T03:10:12.449Z,25.67
2022-10-04T03:12:40.951Z,24.20
2022-10-04T03:15:13.326Z,21.70
2022-10-04T03:17:43.672Z,21.42
2022-10-04T03:20:21.205Z,24.33
2022-10-04T03:22:55.593Z,23.65
2022-10-04T03:25:32.142Z,23.00
2022-10-04T03:28:03.265Z,23.40
2022-10-04T03:30:32.350Z,24.25
2022-10-04T03:33:00.151Z,21.65
2022-10-04T03:35:35.507Z,22.50
2022-10-04T03:38:08.057Z,23.55
2022-10-04T03:40:37.801Z,25.45
2022-10-04T03:43:06.588Z,22.08
2022-10-04T03:45:35.328Z,23.17
2022-10-04T03:48:06.517Z,20.77
2022-10-04T03:50:44.631Z,22.35
2022-10-04T03:53:30.165Z,20.67
2022-10-04T03:56:04.027Z,21.80
2022-10-04T03:58:33.013Z,21.02
2022-10-04T04:01:23.066Z,23.23
2022-10-04T04:03:56.295Z,21.58
2022-10-04T04:06:25.448Z,21.10
2022-10-04T04:08:55.277Z,20.20
2022-10-04T04:11:26.445Z,20.88
2022-10-04T04:13:56.899Z,21.15
2022-10-04T04:16:28.326Z,21.40
2022-10-04T04:19:01.223Z,20.75
2022-10-04T04:21:29.822Z,22.10
2022-10-04T04:24:05.507Z,20.85
2022-10-04T04:26:41.227Z,24.95
2022-10-04T04:29:18.425Z,23.98
2022-10-04T04:31:48.748Z,20.67
2022-10-04T04:34:21.051Z,20.23
2022-10-04T04:36:48.481Z,23.35
2022-10-04T04:39:39.771Z,22.17
2022-10-04T04:42:31.655Z,21.65
2022-10-04T04:45:25.531Z,22.58
2022-10-04T04:48:04.647Z,21.05
2022-10-04T04:50:35.689Z,19.98
2022-10-04T04:53:28.847Z,22.77
2022-10-04T04:56:10.425Z,19.70
2022-10-04T04:58:45.843Z,18.55
2022-10-04T05:01:55.502Z,19.10
2022-10-04T05:04:23.837Z,17.98
2022-10-04T05:07:04.600Z,21.05
2022-10-04T05:09:38.660Z,19.73
2022-10-04T05:12:17.623Z,18.95
2022-10-04T05:14:52.243Z,19.98
2022-10-04T05:17:54.804Z,17.83
2022-10-04T05:20:22.332Z,17.35
2022-10-04T05:22:50.406Z,17.33
2022-10-04T05:25:36.551Z,19.27
2022-10-04T05:28:05.360Z,19.02
2022-10-04T05:31:04.302Z,19.10
2022-10-04T05:33:49.712Z,18.35
2022-10-04T05:36:42.016Z,17.77
2022-10-04T05:39:20.197Z,16.55
2022-10-04T05:42:16.072Z,14.60
2022-10-04T05:44:54.026Z,18.35
2022-10-04T05:47:25.042Z,19.88
2022-10-04T05:49:58.153Z,14.32
2022-10-04T05:52:33.556Z,16.20
2022-10-04T05:55:16.165Z,17.58
2022-10-04T05:58:18.048Z,16.05
2022-10-04T06:01:26.056Z,17.10
2022-10-04T06:04:24.855Z,14.98
2022-10-04T06:07:17.245Z,14.50
2022-10-04T06:09:55.619Z,14.73
2022-10-04T06:12:52.709Z,15.38
2022-10-04T06:15:44.877Z,26.30
2022-10-04T06:18:33.443Z,16.98
2022-10-04T06:21:32.108Z,17.30
2022-10-04T06:28:13.971Z,20.92
2022-10-04T06:43:27.986Z,17.38
2022-10-04T06:53:33.556Z,14.90
2022-10-04T07:00:19.253Z,18.58
2022-10-04T07:03:09.031Z,14.98
2022-10-04T07:05:46.071Z,16.23
2022-10-04T07:09:20.973Z,15.75
2022-10-04T07:12:32.089Z,14.80
2022-10-04T07:19:32.594Z,16.77
2022-10-04T07:22:12.253Z,14.88
2022-10-04T07:24:47.753Z,15.00
2022-10-04T07:27:39.717Z,12.48
2022-10-04T07:30:19.025Z,14.02
2022-10-04T07:36:31.331Z,16.38
2022-10-04T07:39:10.689Z,15.48
2022-10-04T07:41:58.584Z,16.35
2022-10-04T07:47:26.777Z,14.95
2022-10-04T07:49:55.111Z,18.73
2022-10-04T07:52:44.278Z,15.60
2022-10-04T07:55:31.159Z,17.55
2022-10-04T07:58:07.363Z,18.52
2022-10-04T08:00:38.807Z,15.63
2022-10-04T08:03:48.049Z,21.30
2022-10-04T08:06:34.654Z,17.10
2022-10-04T08:09:57.293Z,15.38
2022-10-04T08:12:27.027Z,16.15
2022-10-04T08:15:25.654Z,19.92
2022-10-04T08:18:20.919Z,24.13
2022-10-04T08:21:01.301Z,19.70
2022-10-04T08:24:14.114Z,20.17
2022-10-04T08:26:59.457Z,16.90
2022-10-04T08:30:16.471Z,16.13
2022-10-04T08:33:09.810Z,17.15
2022-10-04T08:35:46.765Z,21.95
2022-10-04T08:38:21.212Z,20.48
2022-10-04T08:40:48.493Z,16.30
2022-10-04T08:43:51.466Z,20.00
2022-10-04T08:51:37.051Z,18.98
2022-10-04T08:54:26.124Z,21.25
2022-10-04T08:57:16.060Z,18.88
2022-10-04T09:03:15.772Z,18.70
2022-10-04T09:06:15.270Z,22.20
2022-10-04T09:09:45.803Z,21.45
2022-10-04T09:12:52.826Z,18.52
2022-10-04T09:15:40.744Z,18.45
2022-10-04T09:18:46.653Z,15.48
2022-10-04T09:21:28.853Z,15.18
2022-10-04T09:24:33.959Z,12.60
2022-10-04T09:27:55.545Z,13.35
2022-10-04T09:30:34.697Z,12.25
2022-10-04T09:33:17.189Z,11.27
2022-10-04T09:36:03.030Z,11.55
2022-10-04T09:38:40.108Z,11.85
2022-10-04T09:41:20.902Z,10.90
2022-10-04T09:47:24.302Z,10.52
2022-10-04T09:50:18.693Z,9.00
2022-10-04T09:52:55.743Z,12.05
2022-10-04T09:59:25.464Z,15.38
2022-10-04T10:02:30.186Z,11.32
2022-10-04T10:05:55.579Z,12.57
2022-10-04T10:08:36.597Z,14.20
2022-10-04T10:11:50.598Z,10.65
2022-10-04T10:14:36.534Z,11.25
2022-10-04T10:17:10.497Z,12.88
2022-10-04T10:19:50.157Z,12.05
2022-10-04T10:23:00.786Z,11.90
2022-10-04T10:26:02.055Z,17.13
2022-10-04T10:29:02.856Z,14.80
2022-10-04T10:31:39.096Z,14.75
2022-10-04T10:34:25.361Z,10.82
2022-10-04T10:37:22.996Z,13.57
2022-10-04T10:40:23.567Z,12.98
2022-10-04T10:43:35.083Z,13.43
2022-10-04T10:46:07.886Z,12.23
2022-10-04T10:49:04.208Z,11.88
2022-10-04T10:52:20.134Z,11.48
2022-10-04T10:55:09.942Z,9.93
2022-10-04T10:58:16.510Z,9.30
2022-10-04T11:01:07.180Z,9.75
2022-10-04T11:04:12.354Z,10.63
2022-10-04T11:07:15.004Z,9.05
2022-10-04T11:10:29.203Z,9.38
2022-10-04T11:13:44.913Z,8.88
2022-10-04T11:16:38.124Z,8.77
2022-10-04T11:19:39.639Z,9.73
2022-10-04T11:22:22.003Z,8.25
2022-10-04T11:25:04.548Z,8.10
2022-10-04T11:28:02.618Z,9.65
2022-10-04T11:31:02.687Z,9.73
2022-10-04T11:34:16.437Z,12.90
2022-10-04T11:37:06.057Z,8.25
2022-10-04T11:39:36.385Z,10.68
2022-10-04T11:42:03.550Z,8.57
2022-10-04T11:44:49.067Z,6.45
2022-10-04T11:47:36.600Z,7.97
2022-10-04T11:50:28.431Z,8.27
2022-10-04T11:53:27.055Z,11.23
2022-10-04T11:56:08.666Z,7.00
2022-10-04T11:58:54.150Z,7.65
2022-10-04T12:01:38.641Z,6.55
2022-10-04T12:04:55.241Z,8.63
2022-10-04T12:07:50.479Z,7.57
2022-10-04T12:10:35.368Z,9.15
2022-10-04T12:13:47.805Z,7.93
2022-10-04T12:16:55.399Z,6.55
2022-10-04T12:20:02.063Z,6.65
2022-10-04T12:22:53.035Z,8.30
2022-10-04T12:25:58.458Z,8.25
2022-10-04T12:28:56.600Z,8.98
2022-10-04T12:31:37.098Z,6.75
2022-10-04T12:34:16.992Z,8.07
2022-10-04T12:37:05.981Z,7.05
2022-10-04T12:39:38.694Z,6.10
2022-10-04T12:42:39.719Z,6.80
2022-10-04T12:45:48.471Z,6.22
2022-10-04T12:49:08.672Z,6.80
2022-10-04T12:52:02.814Z,6.75
2022-10-04T12:55:37.030Z,6.43
2022-10-04T12:58:55.241Z,7.93
2022-10-04T13:01:46.499Z,5.97
2022-10-04T13:04:25.139Z,6.88
2022-10-04T13:07:27.259Z,5.60
2022-10-04T13:10:32.495Z,7.05
2022-10-04T13:13:17.882Z,6.35
2022-10-04T13:23:47.629Z,8.23
2022-10-04T13:26:46.343Z,6.30
2022-10-04T13:30:05.994Z,7.70
2022-10-04T13:32:55.248Z,7.07
2022-10-04T13:35:57.813Z,7.93
2022-10-04T13:39:10.208Z,7.88
2022-10-04T13:42:17.153Z,7.75
2022-10-04T13:45:19.838Z,8.75
2022-10-04T13:48:29.704Z,9.15
2022-10-04T13:51:38.452Z,10.52
2022-10-04T13:54:39.140Z,7.63
2022-10-04T14:05:37.801Z,9.70
2022-10-04T14:15:32.929Z,10.80
2022-10-04T14:18:26.979Z,8.10
2022-10-04T14:21:46.047Z,11.68
2022-10-04T14:24:38.961Z,10.52
2022-10-04T14:27:40.437Z,9.63
2022-10-04T14:30:18.691Z,8.65
2022-10-04T14:33:28.147Z,7.40
2022-10-04T14:37:06.027Z,8.77
2022-10-04T14:39:58.422Z,8.60
2022-10-04T14:42:56.033Z,9.65
2022-10-04T14:45:36.183Z,11.30
2022-10-04T14:48:57.155Z,9.98
2022-10-04T14:52:08.266Z,9.63
2022-10-04T14:59:21.503Z,14.10
2022-10-04T15:02:07.739Z,10.27
2022-10-04T15:05:00.955Z,13.07
2022-10-04T15:10:48.709Z,13.27
2022-10-04T15:13:33.428Z,10.02
2022-10-04T15:16:46.055Z,9.13
2022-10-04T15:19:20.750Z,9.90
2022-10-04T15:22:00.481Z,9.60
2022-10-04T15:24:46.784Z,9.35
2022-10-04T15:27:33.074Z,12.02
2022-10-04T15:30:18.470Z,12.52
2022-10-04T15:33:30.278Z,11.48
2022-10-04T15:35:57.602Z,11.98
2022-10-04T15:38:35.569Z,8.75
2022-10-04T15:41:14.734Z,9.40
2022-10-04T15:43:58.086Z,10.38
2022-10-04T15:46:38.851Z,11.05
2022-10-04T15:49:18.078Z,10.30
2022-10-04T15:52:05.987Z,11.25
2022-10-04T15:54:54.659Z,11.23
2022-10-04T16:00:41.672Z,13.43
2022-10-04T16:03:34.225Z,12.63
2022-10-04T16:06:21.544Z,13.02
2022-10-04T16:09:19.312Z,13.25
2022-10-04T16:12:20.260Z,16.55
2022-10-04T16:15:07.799Z,13.35
2022-10-04T16:17:49.572Z,11.43
2022-10-04T16:20:55.393Z,13.48
2022-10-04T16:23:28.969Z,13.43
2022-10-04T16:26:26.400Z,13.55
2022-10-04T16:29:00.653Z,11.63
2022-10-04T16:32:27.471Z,12.02
2022-10-04T16:35:37.222Z,13.57
2022-10-04T16:38:18.447Z,13.77
2022-10-04T16:40:51.672Z,13.95
2022-10-04T16:43:18.950Z,12.10
2022-10-04T16:46:26.603Z,13.52
2022-10-04T16:49:01.078Z,13.00
2022-10-04T16:51:39.140Z,13.35
2022-10-04T16:54:33.951Z,11.82
2022-10-04T16:57:23.663Z,13.88
2022-10-04T17:00:20.703Z,16.88
2022-10-04T17:03:16.406Z,10.55
2022-10-04T17:05:56.688Z,11.63
2022-10-04T17:08:49.920Z,11.45
2022-10-04T17:11:29.378Z,13.60
2022-10-04T17:14:23.336Z,13.07
2022-10-04T17:17:05.040Z,14.25
2022-10-04T17:19:34.820Z,12.20
2022-10-04T17:22:38.274Z,13.18
2022-10-04T17:25:44.331Z,12.23
2022-10-04T17:28:27.483Z,12.32
2022-10-04T17:31:14.023Z,9.88
2022-10-04T17:33:51.402Z,11.43
2022-10-04T17:36:40.514Z,12.88
2022-10-04T17:39:31.916Z,17.95
2022-10-04T17:42:38.084Z,14.18
2022-10-04T17:45:47.330Z,11.77
2022-10-04T17:48:47.267Z,17.25
2022-10-04T17:51:39.237Z,13.18
2022-10-04T17:54:37.277Z,13.32
2022-10-04T17:57:04.568Z,14.80
2022-10-04T17:59:48.400Z,12.70
2022-10-04T18:02:22.905Z,11.80
2022-10-04T18:05:15.499Z,11.05
2022-10-04T18:07:57.124Z,13.38
2022-10-04T18:10:50.486Z,13.27
2022-10-04T18:13:40.287Z,12.23
2022-10-04T18:16:57.582Z,11.23
2022-10-04T18:19:56.838Z,10.00
2022-10-04T18:22:30.010Z,13.07
2022-10-04T18:25:41.153Z,10.73
2022-10-04T18:28:08.467Z,13.63
2022-10-04T18:34:31.078Z,10.35
2022-10-04T18:37:16.791Z,16.10
2022-10-04T18:39:55.484Z,16.15
2022-10-04T18:42:28.682Z,12.30
2022-10-04T18:45:23.148Z,12.02
2022-10-04T18:47:54.682Z,15.00
2022-10-04T18:50:56.958Z,13.55
2022-10-04T18:53:49.303Z,10.88
2022-10-04T18:56:20.637Z,14.10
2022-10-04T18:59:42.556Z,10.52
2022-10-04T19:02:17.937Z,14.43
2022-10-04T19:05:06.277Z,10.63
2022-10-04T19:07:47.612Z,11.18
2022-10-04T19:10:32.868Z,11.45
2022-10-04T19:13:50.951Z,12.30
2022-10-04T19:17:10.328Z,17.48
2022-10-04T19:20:19.472Z,10.63
2022-10-04T19:23:12.652Z,14.20
2022-10-04T19:26:30.123Z,14.07
2022-10-04T19:29:54.698Z,10.95
2022-10-04T19:32:50.868Z,10.35
2022-10-04T19:35:29.083Z,10.65
2022-10-04T19:38:37.553Z,13.25
2022-10-04T19:41:28.375Z,12.30
2022-10-04T19:44:23.398Z,11.90
2022-10-04T19:47:00.759Z,10.30
2022-10-04T19:49:41.437Z,11.25
2022-10-04T19:52:55.450Z,13.38
2022-10-04T19:55:27.982Z,12.48
2022-10-04T19:58:24.211Z,13.90
2022-10-04T20:00:55.763Z,10.02
2022-10-04T20:03:39.186Z,10.52
2022-10-04T20:06:07.789Z,11.13
2022-10-04T20:09:02.678Z,12.52
2022-10-04T20:12:32.077Z,13.70
2022-10-04T20:15:26.508Z,13.25
2022-10-04T20:18:01.202Z,11.55
2022-10-04T20:20:57.357Z,14.38
2022-10-04T20:24:06.492Z,14.90
2022-10-04T20:27:11.741Z,16.95
2022-10-04T20:29:50.520Z,17.95
2022-10-04T20:36:00.843Z,18.25
2022-10-04T20:39:05.534Z,17.90
2022-10-04T20:41:57.863Z,19.58
2022-10-04T20:49:00.954Z,16.58
2022-10-04T20:57:47.433Z,16.10
2022-10-04T21:07:50.073Z,20.52
2022-10-04T21:10:19.713Z,19.15
2022-10-04T21:12:48.983Z,17.77
2022-10-04T21:15:55.426Z,19.98
2022-10-04T21:18:28.167Z,17.23
2022-10-04T21:20:55.482Z,19.50
2022-10-04T21:23:31.377Z,16.13
2022-10-04T21:28:45.271Z,18.05
2022-10-04T21:31:12.564Z,17.25
2022-10-04T21:33:44.648Z,22.70
2022-10-04T21:36:18.187Z,19.80
2022-10-04T21:38:48.507Z,20.00
2022-10-04T21:41:15.898Z,19.55
2022-10-04T21:43:45.734Z,20.33
2022-10-04T21:46:17.837Z,20.25
2022-10-04T21:48:57.472Z,18.75
2022-10-04T21:51:31.861Z,22.83
2022-10-04T21:53:59.455Z,19.67
2022-10-04T21:56:26.805Z,21.88
2022-10-04T21:58:54.163Z,22.17
2022-10-04T22:01:21.509Z,22.38
2022-10-04T22:03:58.886Z,22.35
2022-10-04T22:06:35.116Z,19.45
2022-10-04T22:09:05.214Z,19.52
2022-10-04T22:11:34.458Z,22.55
2022-10-04T22:14:02.087Z,20.42
2022-10-04T22:16:43.566Z,20.48
2022-10-04T22:19:13.455Z,24.33
2022-10-04T22:21:40.693Z,20.05
2022-10-04T22:24:19.293Z,14.45
2022-10-04T22:27:17.368Z,16.55
2022-10-04T22:29:47.999Z,16.48
2022-10-04T22:32:24.075Z,13.25
2022-10-04T22:35:36.408Z,14.77
2022-10-04T22:38:28.595Z,18.60
2022-10-04T22:40:56.953Z,15.48
2022-10-04T22:43:24.302Z,13.13
2022-10-04T22:45:58.023Z,15.27
2022-10-04T22:48:28.810Z,12.70
2022-10-04T22:50:58.341Z,13.18
2022-10-04T22:53:27.925Z,14.40
2022-10-04T22:55:56.191Z,13.45
2022-10-04T23:01:59.558Z,14.18
2022-10-04T23:05:01.978Z,14.18
2022-10-04T23:07:37.434Z,13.68
2022-10-04T23:10:30.312Z,16.25
2022-10-04T23:13:05.478Z,12.25
2022-10-04T23:15:32.718Z,12.95
2022-10-04T23:18:00.006Z,12.45
2022-10-04T23:32:21.343Z,20.35
2022-10-04T23:34:55.706Z,19.70
2022-10-04T23:37:27.365Z,21.17
2022-10-04T23:43:39.481Z,22.42
2022-10-04T23:46:18.241Z,21.10
2022-10-04T23:52:02.555Z,21.92
2022-10-04T23:54:30.206Z,21.92
2022-10-04T23:57:21.420Z,25.20
2022-10-04T23:59:48.974Z,22.88
